createdAt,value
2022-07-28T00:01:34.564Z,98371.13
2022-07-28T00:04:22.997Z,98381.56
2022-07-28T00:07:12.706Z,98389.03
2022-07-28T00:10:01.216Z,98390.16
2022-07-28T00:12:49.684Z,98376.19
2022-07-28T00:15:38.159Z,98372.78
2022-07-28T00:18:26.505Z,98375.16
2022-07-28T00:21:15.101Z,98384.16
2022-07-28T00:24:05.241Z,98382.63
2022-07-28T00:26:53.626Z,98371.28
2022-07-28T00:29:50.488Z,98390.88
2022-07-28T00:32:39.539Z,98388.06
2022-07-28T00:35:30.893Z,98383.28
2022-07-28T00:38:20.156Z,98394.69
2022-07-28T00:41:13.563Z,98404.28
2022-07-28T00:44:02.001Z,98408.09
2022-07-28T00:46:50.787Z,98408.97
2022-07-28T00:49:40.148Z,98405.97
2022-07-28T00:52:28.780Z,98421.31
2022-07-28T00:55:17.338Z,98418.56
2022-07-28T00:58:07.180Z,98410.59
2022-07-28T01:00:55.866Z,98422.16
2022-07-28T01:03:47.910Z,98401.03
2022-07-28T01:07:03.646Z,98391.66
2022-07-28T01:10:00.224Z,98386.91
2022-07-28T01:12:56.881Z,98389.16
2022-07-28T01:15:56.835Z,98401.13
2022-07-28T01:18:50.774Z,98387.09
2022-07-28T01:21:44.260Z,98396.00
2022-07-28T01:24:40.904Z,98409.09
2022-07-28T01:27:42.066Z,98420.38
2022-07-28T01:30:40.502Z,98419.69
2022-07-28T01:33:35.271Z,98427.88
2022-07-28T01:36:27.449Z,98425.53
2022-07-28T01:39:17.681Z,98414.56
2022-07-28T01:42:08.029Z,98426.00
2022-07-28T01:45:00.482Z,98418.88
2022-07-28T01:47:52.803Z,98422.88
2022-07-28T01:50:43.154Z,98414.63
2022-07-28T01:53:37.766Z,98421.06
2022-07-28T01:56:29.664Z,98416.00
2022-07-28T01:59:19.446Z,98414.34
2022-07-28T02:02:10.113Z,98411.88
2022-07-28T02:05:01.242Z,98407.19
2022-07-28T02:07:51.751Z,98417.75
2022-07-28T02:10:43.963Z,98415.72
2022-07-28T02:13:34.110Z,98423.25
2022-07-28T02:16:25.045Z,98422.88
2022-07-28T02:19:15.126Z,98422.66
2022-07-28T02:22:06.758Z,98425.50
2022-07-28T02:24:56.874Z,98436.50
2022-07-28T02:27:50.766Z,98443.84
2022-07-28T02:30:44.915Z,98447.41
2022-07-28T02:33:59.421Z,98441.84
2022-07-28T02:36:52.127Z,98443.31
2022-07-28T02:39:55.112Z,98445.22
2022-07-28T02:42:52.123Z,98447.38
2022-07-28T02:45:45.701Z,98457.84
2022-07-28T02:48:37.639Z,98454.03
2022-07-28T02:51:29.873Z,98455.09
2022-07-28T02:54:20.212Z,98448.88
2022-07-28T02:57:11.399Z,98457.44
2022-07-28T03:00:00.107Z,98458.59
2022-07-28T03:02:49.806Z,98464.53
2022-07-28T03:05:38.513Z,98467.38
2022-07-28T03:08:27.019Z,98475.44
2022-07-28T03:11:16.004Z,98470.44
2022-07-28T03:14:06.372Z,98481.06
2022-07-28T03:16:55.757Z,98485.31
2022-07-28T03:19:44.705Z,98499.94
2022-07-28T03:22:33.226Z,98493.78
2022-07-28T03:25:27.825Z,98500.16
2022-07-28T03:28:20.770Z,98497.06
2022-07-28T03:31:13.062Z,98489.31
2022-07-28T03:34:01.745Z,98489.81
2022-07-28T03:36:55.383Z,98491.97
2022-07-28T03:39:48.266Z,98491.25
2022-07-28T03:42:38.192Z,98488.38
2022-07-28T03:45:27.793Z,98488.13
2022-07-28T03:48:17.901Z,98489.50
2022-07-28T03:51:06.293Z,98499.81
2022-07-28T03:53:54.849Z,98503.75
2022-07-28T03:56:43.223Z,98508.28
2022-07-28T03:59:31.552Z,98507.03
2022-07-28T04:02:19.976Z,98512.75
2022-07-28T04:05:11.368Z,98507.53
2022-07-28T04:07:59.664Z,98510.88
2022-07-28T04:10:48.145Z,98520.34
2022-07-28T04:13:37.459Z,98524.38
2022-07-28T04:16:26.042Z,98519.03
2022-07-28T04:19:14.646Z,98520.88
2022-07-28T04:22:04.436Z,98519.25
2022-07-28T04:24:53.149Z,98520.91
2022-07-28T04:27:42.402Z,98527.72
2022-07-28T04:30:30.771Z,98515.97
2022-07-28T04:33:19.854Z,98519.63
2022-07-28T04:36:08.483Z,98523.34
2022-07-28T04:38:59.491Z,98523.72
2022-07-28T04:41:47.994Z,98524.66
2022-07-28T04:44:40.492Z,98515.97
2022-07-28T04:47:29.718Z,98511.66
2022-07-28T04:50:20.278Z,98519.03
2022-07-28T04:53:09.054Z,98523.41
2022-07-28T04:55:58.838Z,98521.88
2022-07-28T04:58:47.161Z,98517.94
2022-07-28T05:01:39.216Z,98524.72
2022-07-28T05:04:27.884Z,98531.91
2022-07-28T05:07:16.333Z,98530.50
2022-07-28T05:10:06.104Z,98526.53
2022-07-28T05:12:55.921Z,98539.69
2022-07-28T05:15:44.692Z,98544.47
2022-07-28T05:18:33.155Z,98535.41
2022-07-28T05:21:22.633Z,98535.94
2022-07-28T05:24:13.829Z,98547.91
2022-07-28T05:27:02.557Z,98557.78
2022-07-28T05:29:52.443Z,98560.84
2022-07-28T05:32:41.196Z,98558.47
2022-07-28T05:35:30.016Z,98565.31
2022-07-28T05:38:18.410Z,98567.41
2022-07-28T05:41:07.217Z,98569.19
2022-07-28T05:43:55.768Z,98578.19
2022-07-28T05:46:45.520Z,98570.75
2022-07-28T05:49:33.982Z,98577.63
2022-07-28T05:52:22.330Z,98577.50
2022-07-28T05:55:11.150Z,98579.19
2022-07-28T05:58:00.322Z,98582.63
2022-07-28T06:00:48.927Z,98575.56
2022-07-28T06:03:42.305Z,98579.69
2022-07-28T06:06:31.423Z,98578.50
2022-07-28T06:09:19.758Z,98578.91
2022-07-28T06:12:09.047Z,98578.53
2022-07-28T06:14:57.487Z,98582.03
2022-07-28T06:17:46.115Z,98586.94
2022-07-28T06:20:35.957Z,98580.66
2022-07-28T06:23:24.832Z,98574.59
2022-07-28T06:26:13.255Z,98586.66
2022-07-28T06:29:01.727Z,98593.78
2022-07-28T06:31:50.282Z,98587.03
2022-07-28T06:34:38.769Z,98588.78
2022-07-28T06:37:28.546Z,98593.16
2022-07-28T06:40:18.969Z,98586.78
2022-07-28T06:43:08.486Z,98572.25
2022-07-28T06:45:57.030Z,98580.25
2022-07-28T06:48:46.219Z,98575.88
2022-07-28T06:51:34.798Z,98577.16
2022-07-28T06:54:28.272Z,98581.53
2022-07-28T06:57:16.839Z,98581.81
2022-07-28T07:00:08.900Z,98586.81
2022-07-28T07:02:57.369Z,98591.59
2022-07-28T07:05:45.812Z,98592.44
2022-07-28T07:08:38.103Z,98587.13
2022-07-28T07:11:28.028Z,98585.25
2022-07-28T07:14:16.730Z,98592.19
2022-07-28T07:17:05.442Z,98590.75
2022-07-28T07:19:53.860Z,98589.41
2022-07-28T07:22:46.462Z,98584.06
2022-07-28T07:25:34.986Z,98583.81
2022-07-28T07:28:24.854Z,98587.31
2022-07-28T07:31:13.302Z,98585.78
2022-07-28T07:34:01.668Z,98582.91
2022-07-28T07:36:50.041Z,98581.47
2022-07-28T07:39:38.550Z,98582.03
2022-07-28T07:42:27.446Z,98567.84
2022-07-28T07:45:17.247Z,98567.69
2022-07-28T07:48:05.988Z,98575.53
2022-07-28T07:50:54.618Z,98578.88
2022-07-28T07:53:43.094Z,98572.50
2022-07-28T07:56:31.480Z,98572.22
2022-07-28T07:59:19.754Z,98575.03
2022-07-28T08:02:10.143Z,98573.16
2022-07-28T08:04:58.568Z,98582.78
2022-07-28T08:07:47.066Z,98580.72
2022-07-28T08:10:36.282Z,98579.59
2022-07-28T08:13:24.742Z,98576.94
2022-07-28T08:16:13.160Z,98575.84
2022-07-28T08:19:03.478Z,98571.53
2022-07-28T08:21:55.649Z,98575.84
2022-07-28T08:24:44.509Z,98581.47
2022-07-28T08:27:32.937Z,98568.69
2022-07-28T08:30:21.403Z,98575.56
2022-07-28T08:33:12.161Z,98574.44
2022-07-28T08:36:01.869Z,98574.59
2022-07-28T08:38:50.604Z,98573.72
2022-07-28T08:41:45.981Z,98567.75
2022-07-28T08:45:03.243Z,98577.13
2022-07-28T08:48:07.654Z,98581.22
2022-07-28T08:50:58.106Z,98579.25
2022-07-28T08:53:49.979Z,98573.59
2022-07-28T08:56:48.276Z,98571.31
2022-07-28T08:59:37.758Z,98563.34
2022-07-28T09:02:27.892Z,98569.13
2022-07-28T09:05:16.946Z,98572.91
2022-07-28T09:08:06.427Z,98568.28
2022-07-28T09:10:56.634Z,98569.59
2022-07-28T09:13:45.092Z,98563.88
2022-07-28T09:16:34.097Z,98562.81
2022-07-28T09:19:22.434Z,98558.31
2022-07-28T09:22:10.883Z,98561.09
2022-07-28T09:24:59.342Z,98551.84
2022-07-28T09:27:49.172Z,98550.13
2022-07-28T09:30:53.953Z,98557.31
2022-07-28T09:33:54.501Z,98550.88
2022-07-28T09:36:42.947Z,98558.66
2022-07-28T09:39:33.284Z,98561.22
2022-07-28T09:42:22.749Z,98560.88
2022-07-28T09:45:23.036Z,98565.84
2022-07-28T09:48:13.838Z,98563.81
2022-07-28T09:51:14.683Z,98553.72
2022-07-28T09:54:11.584Z,98562.59
2022-07-28T09:57:00.253Z,98556.28
2022-07-28T09:59:52.131Z,98557.34
2022-07-28T10:02:50.921Z,98567.00
2022-07-28T10:05:42.497Z,98565.75
2022-07-28T10:08:44.452Z,98566.75
2022-07-28T10:11:35.379Z,98569.19
2022-07-28T10:14:33.856Z,98561.56
2022-07-28T10:17:30.885Z,98560.25
2022-07-28T10:20:21.675Z,98564.94
2022-07-28T10:23:11.750Z,98566.28
2022-07-28T10:26:02.368Z,98561.22
2022-07-28T10:28:53.097Z,98552.97
2022-07-28T10:31:47.056Z,98545.31
2022-07-28T10:34:39.308Z,98545.63
2022-07-28T10:37:32.085Z,98546.03
2022-07-28T10:40:26.211Z,98549.56
2022-07-28T10:43:15.166Z,98543.34
2022-07-28T10:46:08.805Z,98549.06
2022-07-28T10:48:59.718Z,98537.31
2022-07-28T10:52:08.858Z,98540.72
2022-07-28T10:55:11.970Z,98538.81
2022-07-28T10:58:11.636Z,98544.34
2022-07-28T11:01:05.985Z,98542.84
2022-07-28T11:03:55.179Z,98533.38
2022-07-28T11:06:46.149Z,98531.41
2022-07-28T11:09:35.686Z,98530.47
2022-07-28T11:12:49.622Z,98522.63
2022-07-28T11:15:38.403Z,98525.91
2022-07-28T11:18:26.910Z,98532.69
2022-07-28T11:21:16.535Z,98526.13
2022-07-28T11:24:05.772Z,98519.91
2022-07-28T11:26:54.417Z,98518.44
2022-07-28T11:29:48.258Z,98516.19
2022-07-28T11:32:57.918Z,98526.78
2022-07-28T11:36:02.357Z,98520.97
2022-07-28T11:39:23.255Z,98519.31
2022-07-28T11:42:28.958Z,98513.78
2022-07-28T11:45:38.385Z,98517.06
2022-07-28T11:48:30.055Z,98516.41
2022-07-28T11:51:19.703Z,98513.34
2022-07-28T11:54:18.113Z,98520.31
2022-07-28T11:57:09.977Z,98513.06
2022-07-28T12:00:02.382Z,98502.44
2022-07-28T12:02:56.671Z,98496.34
2022-07-28T12:05:58.097Z,98503.25
2022-07-28T12:08:53.982Z,98506.81
2022-07-28T12:11:43.750Z,98494.78
2022-07-28T12:14:39.861Z,98490.06
2022-07-28T12:17:35.156Z,98497.00
2022-07-28T12:20:24.941Z,98494.22
2022-07-28T12:23:14.327Z,98494.22
2022-07-28T12:26:04.671Z,98489.81
2022-07-28T12:28:53.227Z,98491.81
2022-07-28T12:31:54.283Z,98493.78
2022-07-28T12:34:44.473Z,98486.88
2022-07-28T12:37:35.515Z,98486.19
2022-07-28T12:40:27.623Z,98484.19
2022-07-28T12:43:21.025Z,98479.25
2022-07-28T12:46:09.522Z,98479.09
2022-07-28T12:48:59.080Z,98478.63
2022-07-28T12:51:47.714Z,98476.69
2022-07-28T12:54:38.431Z,98480.91
2022-07-28T12:57:48.636Z,98474.69
2022-07-28T13:00:38.684Z,98465.09
2022-07-28T13:03:29.609Z,98470.34
2022-07-28T13:06:17.987Z,98463.13
2022-07-28T13:09:06.483Z,98460.69
2022-07-28T13:12:04.873Z,98459.69
2022-07-28T13:14:56.718Z,98464.25
2022-07-28T13:17:53.473Z,98470.09
2022-07-28T13:20:49.559Z,98468.50
2022-07-28T13:23:38.233Z,98465.38
2022-07-28T13:26:27.041Z,98472.88
2022-07-28T13:29:17.019Z,98467.25
2022-07-28T13:32:05.875Z,98462.09
2022-07-28T13:34:54.704Z,98454.28
2022-07-28T13:37:42.990Z,98456.50
2022-07-28T13:40:31.313Z,98452.13
2022-07-28T13:43:19.857Z,98457.66
2022-07-28T13:46:10.474Z,98450.03
2022-07-28T13:49:00.036Z,98456.44
2022-07-28T13:51:48.850Z,98452.56
2022-07-28T13:54:39.817Z,98448.69
2022-07-28T13:57:28.710Z,98452.81
2022-07-28T14:00:18.832Z,98451.44
2022-07-28T14:03:12.836Z,98454.22
2022-07-28T14:06:02.415Z,98449.69
2022-07-28T14:08:50.857Z,98455.06
2022-07-28T14:11:41.455Z,98457.06
2022-07-28T14:14:38.714Z,98460.97
2022-07-28T14:17:46.134Z,98452.53
2022-07-28T14:20:36.401Z,98456.63
2022-07-28T14:23:24.785Z,98444.75
2022-07-28T14:26:35.153Z,98446.06
2022-07-28T14:29:21.489Z,98435.53
2022-07-28T14:32:09.878Z,98438.84
2022-07-28T14:34:58.415Z,98430.28
2022-07-28T14:40:57.686Z,98434.78
2022-07-28T14:43:46.065Z,98428.34
2022-07-28T14:46:34.469Z,98426.28
2022-07-28T14:49:22.925Z,98430.63
2022-07-28T14:52:11.413Z,98432.09
2022-07-28T14:55:01.091Z,98417.19
2022-07-28T14:57:54.654Z,98413.22
2022-07-28T15:00:43.545Z,98425.50
2022-07-28T15:03:36.393Z,98418.66
2022-07-28T15:06:26.224Z,98409.25
2022-07-28T15:09:15.353Z,98405.31
2022-07-28T15:12:05.632Z,98407.00
2022-07-28T15:14:54.125Z,98404.44
2022-07-28T15:17:42.552Z,98403.13
2022-07-28T15:20:31.636Z,98401.25
2022-07-28T15:23:19.984Z,98407.22
2022-07-28T15:26:08.438Z,98401.63
2022-07-28T15:28:58.237Z,98397.50
2022-07-28T15:31:47.345Z,98403.66
2022-07-28T15:34:36.436Z,98395.88
2022-07-28T15:37:24.837Z,98398.84
2022-07-28T15:40:13.946Z,98391.66
2022-07-28T15:43:02.335Z,98394.25
2022-07-28T15:45:52.422Z,98398.03
2022-07-28T15:48:43.016Z,98394.28
2022-07-28T15:51:31.626Z,98389.09
2022-07-28T15:54:20.138Z,98386.59
2022-07-28T15:57:08.436Z,98387.94
2022-07-28T15:59:56.744Z,98390.59
2022-07-28T16:02:48.003Z,98385.53
2022-07-28T16:05:36.449Z,98384.91
2022-07-28T16:08:24.992Z,98385.91
2022-07-28T16:11:13.714Z,98382.06
2022-07-28T16:14:02.295Z,98389.81
2022-07-28T16:16:50.657Z,98387.88
2022-07-28T16:19:49.843Z,98380.56
2022-07-28T16:22:40.795Z,98386.94
2022-07-28T16:25:29.195Z,98386.22
2022-07-28T16:28:17.582Z,98386.94
2022-07-28T16:31:06.014Z,98386.59
2022-07-28T16:33:54.458Z,98393.41
2022-07-28T16:36:44.283Z,98385.28
2022-07-28T16:39:32.720Z,98389.56
2022-07-28T16:42:21.259Z,98383.72
2022-07-28T16:45:10.546Z,98387.75
2022-07-28T16:47:59.091Z,98398.19
2022-07-28T16:50:47.493Z,98391.22
2022-07-28T16:53:37.256Z,98386.72
2022-07-28T16:56:25.596Z,98399.41
2022-07-28T16:59:14.168Z,98389.63
2022-07-28T17:02:02.639Z,98387.56
2022-07-28T17:04:51.341Z,98394.75
2022-07-28T17:07:45.185Z,98385.81
2022-07-28T17:10:35.479Z,98394.78
2022-07-28T17:13:25.725Z,98392.47
2022-07-28T17:16:14.320Z,98399.41
2022-07-28T17:19:02.870Z,98393.31
2022-07-28T17:21:52.197Z,98404.69
2022-07-28T17:24:40.530Z,98400.63
2022-07-28T17:27:37.381Z,98406.47
2022-07-28T17:30:29.899Z,98394.19
2022-07-28T17:33:19.158Z,98400.97
2022-07-28T17:36:08.380Z,98409.91
2022-07-28T17:38:56.713Z,98402.34
2022-07-28T17:41:45.154Z,98410.94
2022-07-28T17:44:35.106Z,98413.59
2022-07-28T17:47:24.511Z,98417.75
2022-07-28T17:50:24.676Z,98420.34
2022-07-28T17:53:13.065Z,98424.06
2022-07-28T17:56:02.101Z,98429.31
2022-07-28T17:58:54.430Z,98429.03
2022-07-28T18:01:45.653Z,98423.06
2022-07-28T18:04:34.151Z,98434.91
2022-07-28T18:07:22.639Z,98434.94
2022-07-28T18:10:11.268Z,98427.84
2022-07-28T18:12:59.583Z,98436.09
2022-07-28T18:15:48.129Z,98431.94
2022-07-28T18:18:37.963Z,98422.84
2022-07-28T18:21:26.938Z,98428.19
2022-07-28T18:24:15.720Z,98429.81
2022-07-28T18:27:04.706Z,98429.47
2022-07-28T18:29:53.225Z,98432.31
2022-07-28T18:32:41.617Z,98440.72
2022-07-28T18:35:32.175Z,98433.75
2022-07-28T18:38:20.533Z,98444.06
2022-07-28T18:41:08.903Z,98445.53
2022-07-28T18:43:57.227Z,98449.25
2022-07-28T18:46:45.753Z,98444.59
2022-07-28T18:49:37.827Z,98452.91
2022-07-28T18:52:28.805Z,98450.91
2022-07-28T18:55:19.013Z,98454.03
2022-07-28T18:58:07.403Z,98452.13
2022-07-28T19:00:55.866Z,98458.94
2022-07-28T19:03:45.704Z,98466.59
2022-07-28T19:06:34.087Z,98472.47
2022-07-28T19:09:24.076Z,98470.41
2022-07-28T19:12:12.534Z,98465.16
2022-07-28T19:15:01.668Z,98464.84
2022-07-28T19:18:09.713Z,98468.81
2022-07-28T19:20:58.551Z,98471.63
2022-07-28T19:23:48.505Z,98464.72
2022-07-28T19:26:38.243Z,98469.72
2022-07-28T19:29:27.653Z,98472.09
2022-07-28T19:32:16.037Z,98472.53
2022-07-28T19:35:04.491Z,98475.03
2022-07-28T19:37:52.924Z,98470.22
2022-07-28T19:40:43.278Z,98471.44
2022-07-28T19:43:33.754Z,98470.72
2022-07-28T19:46:24.416Z,98472.31
2022-07-28T19:49:16.988Z,98472.75
2022-07-28T19:52:06.127Z,98476.19
2022-07-28T19:54:54.528Z,98485.97
2022-07-28T19:57:45.391Z,98475.88
2022-07-28T20:00:35.166Z,98477.22
2022-07-28T20:04:00.842Z,98483.78
2022-07-28T20:06:32.766Z,98477.81
2022-07-28T20:09:21.401Z,98489.84
2022-07-28T20:12:10.098Z,98484.97
2022-07-28T20:14:59.156Z,98479.69
2022-07-28T20:17:49.164Z,98482.88
2022-07-28T20:20:37.694Z,98480.78
2022-07-28T20:23:26.138Z,98490.91
2022-07-28T20:26:14.693Z,98487.91
2022-07-28T20:29:05.073Z,98496.69
2022-07-28T20:31:53.652Z,98489.91
2022-07-28T20:34:43.643Z,98491.53
2022-07-28T20:37:37.127Z,98491.13
2022-07-28T20:40:26.462Z,98490.56
2022-07-28T20:43:14.822Z,98492.81
2022-07-28T20:46:03.507Z,98489.19
2022-07-28T20:48:52.076Z,98489.00
2022-07-28T20:51:50.743Z,98487.88
2022-07-28T20:54:39.567Z,98484.66
2022-07-28T20:57:28.152Z,98493.59
2022-07-28T21:00:17.180Z,98485.72
2022-07-28T21:03:06.197Z,98487.00
2022-07-28T21:05:54.756Z,98489.84
2022-07-28T21:08:45.850Z,98492.25
2022-07-28T21:11:35.182Z,98496.22
2022-07-28T21:14:23.969Z,98492.94
2022-07-28T21:17:12.444Z,98497.81
2022-07-28T21:20:00.751Z,98498.63
2022-07-28T21:22:49.083Z,98500.91
2022-07-28T21:25:38.731Z,98499.91
2022-07-28T21:28:45.656Z,98508.91
2022-07-28T21:31:34.008Z,98506.75
2022-07-28T21:34:42.329Z,98509.97
2022-07-28T21:37:30.670Z,98511.22
2022-07-28T21:40:19.187Z,98514.44
2022-07-28T21:43:09.294Z,98525.94
2022-07-28T21:45:57.774Z,98515.19
2022-07-28T21:48:46.214Z,98521.03
2022-07-28T21:51:34.686Z,98521.53
2022-07-28T21:54:22.982Z,98522.28
2022-07-28T21:57:22.565Z,98531.03
2022-07-28T22:00:17.403Z,98530.66
2022-07-28T22:03:05.951Z,98536.84
2022-07-28T22:05:57.798Z,98528.31
2022-07-28T22:08:46.233Z,98534.94
2022-07-28T22:11:34.718Z,98536.53
2022-07-28T22:14:25.576Z,98529.78
2022-07-28T22:17:15.416Z,98543.91
2022-07-28T22:20:04.485Z,98530.53
2022-07-28T22:22:52.960Z,98534.56
2022-07-28T22:25:41.921Z,98541.41
2022-07-28T22:28:30.969Z,98543.34
2022-07-28T22:31:19.517Z,98540.06
2022-07-28T22:34:09.295Z,98535.75
2022-07-28T22:36:57.809Z,98541.53
2022-07-28T22:39:46.158Z,98541.31
2022-07-28T22:42:34.512Z,98540.81
2022-07-28T22:45:49.716Z,98535.31
2022-07-28T22:48:31.450Z,98527.19
2022-07-28T22:51:21.134Z,98534.53
2022-07-28T22:54:09.655Z,98532.50
2022-07-28T22:56:58.039Z,98532.25
2022-07-28T22:59:48.064Z,98537.88
2022-07-28T23:02:39.743Z,98541.88
2022-07-28T23:05:28.109Z,98541.22
2022-07-28T23:08:17.830Z,98534.97
2022-07-28T23:11:06.690Z,98543.50
2022-07-28T23:13:55.075Z,98543.25
2022-07-28T23:16:43.487Z,98550.78
2022-07-28T23:19:32.090Z,98549.38
2022-07-28T23:22:20.478Z,98550.69
2022-07-28T23:25:11.023Z,98550.34
2022-07-28T23:27:59.440Z,98545.09
2022-07-28T23:30:48.321Z,98547.00
2022-07-28T23:33:55.561Z,98543.34
2022-07-28T23:36:47.591Z,98543.88
2022-07-28T23:39:35.922Z,98541.41
2022-07-28T23:42:25.600Z,98536.22
2022-07-28T23:45:13.925Z,98538.47
2022-07-28T23:48:02.427Z,98536.84
2022-07-28T23:50:50.785Z,98543.19
2022-07-28T23:53:39.782Z,98528.44
2022-07-28T23:56:28.089Z,98548.41
2022-07-28T23:59:17.820Z,98533.75
